createdAt,value
2023-01-20T00:01:36.065Z,99586.22
2023-01-20T00:04:05.244Z,99579.66
2023-01-20T00:06:32.307Z,99575.00
2023-01-20T00:09:00.843Z,99578.34
2023-01-20T00:11:28.636Z,99586.53
2023-01-20T00:13:56.876Z,99584.13
2023-01-20T00:16:27.741Z,99586.53
2023-01-20T00:18:58.798Z,99592.97
2023-01-20T00:21:25.511Z,99611.19
2023-01-20T00:23:57.017Z,99622.44
2023-01-20T00:26:25.330Z,99623.88
2023-01-20T00:28:54.541Z,99625.47
2023-01-20T00:31:23.716Z,99626.56
2023-01-20T00:33:53.661Z,99623.69
2023-01-20T00:36:24.387Z,99635.72
2023-01-20T00:38:54.579Z,99636.00
2023-01-20T00:41:21.203Z,99637.31
2023-01-20T00:43:47.908Z,99631.41
2023-01-20T00:46:15.190Z,99643.56
2023-01-20T00:48:42.352Z,99638.59
2023-01-20T00:51:11.415Z,99640.84
2023-01-20T00:53:40.734Z,99635.87
2023-01-20T00:56:09.375Z,99634.91
2023-01-20T00:58:37.764Z,99632.16
2023-01-20T01:01:06.765Z,99635.66
2023-01-20T01:03:33.435Z,99627.59
2023-01-20T01:06:15.573Z,99625.50
2023-01-20T01:08:44.444Z,99614.16
2023-01-20T01:11:14.678Z,99605.03
2023-01-20T01:13:42.022Z,99596.50
2023-01-20T01:16:15.937Z,99597.13
2023-01-20T01:18:43.274Z,99599.31
2023-01-20T01:21:12.894Z,99593.25
2023-01-20T01:23:39.679Z,99598.50
2023-01-20T01:26:12.769Z,99590.84
2023-01-20T01:28:43.819Z,99577.28
2023-01-20T01:31:10.893Z,99568.34
2023-01-20T01:33:37.866Z,99565.66
2023-01-20T01:36:05.590Z,99566.78
2023-01-20T01:38:35.720Z,99560.72
2023-01-20T01:41:05.535Z,99558.16
2023-01-20T01:43:37.605Z,99566.69
2023-01-20T01:46:07.536Z,99564.75
2023-01-20T01:48:43.693Z,99563.00
2023-01-20T01:51:27.605Z,99551.94
2023-01-20T01:54:02.918Z,99560.28
2023-01-20T01:56:31.109Z,99558.66
2023-01-20T01:59:06.021Z,99551.16
2023-01-20T02:01:35.537Z,99556.12
2023-01-20T02:04:10.024Z,99551.81
2023-01-20T02:06:40.796Z,99535.94
2023-01-20T02:09:10.023Z,99545.56
2023-01-20T02:11:45.351Z,99541.41
2023-01-20T02:14:13.934Z,99542.66
2023-01-20T02:16:59.719Z,99545.41
2023-01-20T02:20:07.464Z,99553.88
2023-01-20T02:23:03.877Z,99549.88
2023-01-20T02:26:02.811Z,99550.53
2023-01-20T02:28:44.820Z,99554.03
2023-01-20T02:31:33.060Z,99546.34
2023-01-20T02:34:14.272Z,99553.88
2023-01-20T02:36:47.833Z,99552.28
2023-01-20T02:39:30.867Z,99541.88
2023-01-20T02:42:21.771Z,99546.50
2023-01-20T02:45:03.631Z,99545.41
2023-01-20T02:47:37.283Z,99552.28
2023-01-20T02:50:24.589Z,99557.22
2023-01-20T02:52:58.519Z,99554.03
2023-01-20T02:55:57.771Z,99560.28
2023-01-20T02:58:33.619Z,99564.59
2023-01-20T03:01:09.964Z,99567.81
2023-01-20T03:03:41.532Z,99575.50
2023-01-20T03:06:14.371Z,99572.44
2023-01-20T03:08:41.627Z,99565.06
2023-01-20T03:11:11.243Z,99576.47
2023-01-20T03:14:14.685Z,99579.34
2023-01-20T03:16:41.960Z,99580.78
2023-01-20T03:19:09.699Z,99586.22
2023-01-20T03:21:36.741Z,99595.34
2023-01-20T03:24:05.261Z,99598.22
2023-01-20T03:26:31.986Z,99595.19
2023-01-20T03:28:59.583Z,99599.66
2023-01-20T03:31:50.593Z,99589.75
2023-01-20T03:34:30.675Z,99594.69
2023-01-20T03:36:58.356Z,99590.88
2023-01-20T03:39:25.908Z,99587.34
2023-01-20T03:42:25.394Z,99596.47
2023-01-20T03:45:24.461Z,99585.56
2023-01-20T03:48:15.311Z,99583.31
2023-01-20T03:51:16.925Z,99579.66
2023-01-20T03:53:59.721Z,99572.31
2023-01-20T03:56:42.462Z,99582.06
2023-01-20T03:59:14.205Z,99565.56
2023-01-20T04:01:51.639Z,99569.25
2023-01-20T04:04:21.150Z,99568.94
2023-01-20T04:06:56.210Z,99564.28
2023-01-20T04:09:32.162Z,99561.88
2023-01-20T04:12:01.872Z,99562.69
2023-01-20T04:14:31.104Z,99569.09
2023-01-20T04:17:01.220Z,99569.75
2023-01-20T04:19:30.528Z,99575.03
2023-01-20T04:22:30.955Z,99572.78
2023-01-20T04:25:01.136Z,99574.87
2023-01-20T04:27:29.968Z,99568.59
2023-01-20T04:29:56.578Z,99576.28
2023-01-20T04:32:23.175Z,99567.31
2023-01-20T04:34:55.283Z,99580.47
2023-01-20T04:37:21.872Z,99571.00
2023-01-20T04:39:48.532Z,99563.31
2023-01-20T04:42:17.030Z,99574.03
2023-01-20T04:44:52.471Z,99571.00
2023-01-20T04:47:19.117Z,99568.94
2023-01-20T04:49:45.739Z,99577.88
2023-01-20T04:52:14.689Z,99567.16
2023-01-20T04:54:41.289Z,99564.75
2023-01-20T04:57:10.108Z,99557.38
2023-01-20T04:59:36.672Z,99544.88
2023-01-20T05:02:03.302Z,99535.47
2023-01-20T05:04:32.090Z,99548.12
2023-01-20T05:07:00.109Z,99532.38
2023-01-20T05:09:26.808Z,99537.22
2023-01-20T05:11:53.388Z,99533.53
2023-01-20T05:14:19.977Z,99528.53
2023-01-20T05:16:47.276Z,99518.63
2023-01-20T05:19:14.002Z,99507.91
2023-01-20T05:21:42.570Z,99516.22
2023-01-20T05:24:09.906Z,99519.59
2023-01-20T05:26:36.547Z,99525.22
2023-01-20T05:29:03.477Z,99533.34
2023-01-20T05:31:30.136Z,99534.00
2023-01-20T05:33:56.803Z,99530.81
2023-01-20T05:36:23.363Z,99529.19
2023-01-20T05:38:49.949Z,99532.72
2023-01-20T05:41:19.544Z,99529.50
2023-01-20T05:43:46.092Z,99536.87
2023-01-20T05:46:12.757Z,99542.19
2023-01-20T05:48:41.461Z,99540.38
2023-01-20T05:51:08.278Z,99546.81
2023-01-20T05:53:35.104Z,99537.50
2023-01-20T05:56:03.613Z,99538.31
2023-01-20T05:58:31.130Z,99537.00
2023-01-20T06:01:09.280Z,99538.00
2023-01-20T06:03:36.118Z,99531.91
2023-01-20T06:06:04.760Z,99537.81
2023-01-20T06:08:31.415Z,99535.09
2023-01-20T06:10:58.116Z,99537.19
2023-01-20T06:13:24.706Z,99537.97
2023-01-20T06:15:53.479Z,99547.41
2023-01-20T06:18:26.313Z,99544.56
2023-01-20T06:21:01.289Z,99536.87
2023-01-20T06:23:28.200Z,99530.41
2023-01-20T06:26:02.627Z,99522.28
2023-01-20T06:28:29.574Z,99527.72
2023-01-20T06:31:05.411Z,99528.06
2023-01-20T06:36:15.793Z,99529.97
2023-01-20T06:38:44.376Z,99524.34
2023-01-20T06:41:12.604Z,99533.66
2023-01-20T06:43:40.316Z,99538.44
2023-01-20T06:46:10.797Z,99549.97
2023-01-20T06:48:37.840Z,99544.03
2023-01-20T06:51:07.204Z,99544.84
2023-01-20T06:53:34.247Z,99546.44
2023-01-20T06:56:01.567Z,99560.00
2023-01-20T06:58:31.091Z,99559.03
2023-01-20T07:01:03.694Z,99562.41
2023-01-20T07:03:30.419Z,99564.66
2023-01-20T07:06:00.343Z,99572.00
2023-01-20T07:08:27.405Z,99563.97
2023-01-20T07:10:54.057Z,99565.87
2023-01-20T07:13:20.707Z,99571.19
2023-01-20T07:15:47.386Z,99572.34
2023-01-20T07:18:16.313Z,99581.28
2023-01-20T07:20:43.868Z,99585.47
2023-01-20T07:23:10.558Z,99581.28
2023-01-20T07:25:38.143Z,99588.81
2023-01-20T07:28:05.130Z,99587.06
2023-01-20T07:30:31.908Z,99585.75
2023-01-20T07:32:59.902Z,99579.47
2023-01-20T07:35:26.576Z,99581.91
2023-01-20T07:37:53.131Z,99578.16
2023-01-20T07:40:22.953Z,99577.16
2023-01-20T07:42:49.530Z,99577.06
2023-01-20T07:45:16.576Z,99579.94
2023-01-20T07:47:43.344Z,99584.09
2023-01-20T07:50:10.546Z,99582.63
2023-01-20T07:52:39.017Z,99581.34
2023-01-20T07:55:05.949Z,99600.72
2023-01-20T07:57:34.090Z,99592.53
2023-01-20T08:00:00.664Z,99599.81
2023-01-20T08:02:27.217Z,99591.44
2023-01-20T08:04:53.859Z,99591.34
2023-01-20T08:07:20.558Z,99600.38
2023-01-20T08:09:50.274Z,99601.00
2023-01-20T08:12:18.944Z,99604.19
2023-01-20T08:14:46.092Z,99611.31
2023-01-20T08:17:12.664Z,99614.78
2023-01-20T08:19:39.705Z,99610.31
2023-01-20T08:22:06.749Z,99605.97
2023-01-20T08:24:33.326Z,99607.13
2023-01-20T08:27:02.229Z,99616.22
2023-01-20T08:29:31.282Z,99615.91
2023-01-20T08:32:03.882Z,99608.03
2023-01-20T08:34:30.448Z,99615.09
2023-01-20T08:36:57.550Z,99612.31
2023-01-20T08:39:24.562Z,99624.22
2023-01-20T08:41:52.051Z,99629.53
2023-01-20T08:44:22.284Z,99617.44
2023-01-20T08:46:55.123Z,99631.41
2023-01-20T08:49:23.423Z,99626.78
2023-01-20T08:51:50.482Z,99623.81
2023-01-20T08:54:17.472Z,99630.38
2023-01-20T08:56:46.296Z,99628.59
2023-01-20T08:59:12.854Z,99631.59
2023-01-20T09:01:40.843Z,99642.50
2023-01-20T09:04:07.845Z,99638.72
2023-01-20T09:06:48.501Z,99635.87
2023-01-20T09:09:18.115Z,99637.09
2023-01-20T09:11:50.953Z,99630.06
2023-01-20T09:14:23.131Z,99629.56
2023-01-20T09:16:50.603Z,99627.16
2023-01-20T09:19:19.176Z,99622.91
2023-01-20T09:21:45.867Z,99615.72
2023-01-20T09:24:12.499Z,99609.72
2023-01-20T09:26:39.227Z,99603.97
2023-01-20T09:29:10.261Z,99607.78
2023-01-20T09:31:41.190Z,99593.56
2023-01-20T09:34:07.896Z,99589.97
2023-01-20T09:36:34.503Z,99582.22
2023-01-20T09:39:19.874Z,99576.97
2023-01-20T09:42:07.646Z,99580.59
2023-01-20T09:44:40.256Z,99575.97
2023-01-20T09:47:31.207Z,99583.16
2023-01-20T09:50:37.249Z,99574.66
2023-01-20T09:53:30.925Z,99575.38
2023-01-20T09:56:01.548Z,99570.94
2023-01-20T09:58:48.380Z,99568.66
2023-01-20T10:01:19.956Z,99560.22
2023-01-20T10:04:10.983Z,99561.78
2023-01-20T10:06:43.505Z,99549.44
2023-01-20T10:09:19.051Z,99548.28
2023-01-20T10:11:48.176Z,99543.66
2023-01-20T10:14:23.125Z,99536.09
2023-01-20T10:17:10.656Z,99527.13
2023-01-20T10:19:42.959Z,99525.12
2023-01-20T10:22:38.253Z,99530.38
2023-01-20T10:25:28.354Z,99527.72
2023-01-20T10:28:11.595Z,99531.97
2023-01-20T10:30:41.204Z,99537.50
2023-01-20T10:33:20.259Z,99532.53
2023-01-20T10:35:50.791Z,99527.47
2023-01-20T10:38:26.356Z,99521.87
2023-01-20T10:41:02.272Z,99530.09
2023-01-20T10:43:28.907Z,99527.81
2023-01-20T10:46:12.300Z,99535.34
2023-01-20T10:48:45.163Z,99534.09
2023-01-20T10:51:29.881Z,99543.06
2023-01-20T10:54:05.527Z,99549.88
2023-01-20T10:56:34.712Z,99545.03
2023-01-20T10:59:13.020Z,99552.03
2023-01-20T11:01:40.799Z,99540.78
2023-01-20T11:04:17.035Z,99539.16
2023-01-20T11:06:44.219Z,99537.38
2023-01-20T11:09:27.401Z,99529.66
2023-01-20T11:11:54.503Z,99525.50
2023-01-20T11:14:21.222Z,99520.28
2023-01-20T11:16:53.697Z,99519.16
2023-01-20T11:19:21.834Z,99516.06
2023-01-20T11:21:48.777Z,99505.13
2023-01-20T11:24:54.538Z,99495.72
2023-01-20T11:27:25.011Z,99490.13
2023-01-20T11:30:06.159Z,99489.44
2023-01-20T11:32:35.763Z,99485.69
2023-01-20T11:35:20.241Z,99478.25
2023-01-20T11:37:46.994Z,99465.19
2023-01-20T11:40:26.488Z,99465.53
2023-01-20T11:42:56.337Z,99464.75
2023-01-20T11:45:27.703Z,99462.75
2023-01-20T11:48:03.588Z,99460.81
2023-01-20T11:50:33.727Z,99475.75
2023-01-20T11:53:32.078Z,99478.16
2023-01-20T11:56:08.473Z,99455.09
2023-01-20T11:58:56.532Z,99450.47
2023-01-20T12:01:54.379Z,99451.81
2023-01-20T12:04:26.984Z,99458.75
2023-01-20T12:07:03.450Z,99453.44
2023-01-20T12:09:36.461Z,99460.00
2023-01-20T12:12:31.323Z,99458.28
2023-01-20T12:15:09.052Z,99460.72
2023-01-20T12:17:55.120Z,99463.28
2023-01-20T12:20:54.423Z,99460.75
2023-01-20T12:23:24.960Z,99472.19
2023-01-20T12:25:54.257Z,99464.16
2023-01-20T12:28:49.168Z,99468.34
2023-01-20T12:31:23.994Z,99464.16
2023-01-20T12:33:54.988Z,99459.87
2023-01-20T12:36:43.527Z,99463.81
2023-01-20T12:39:33.181Z,99461.09
2023-01-20T12:42:23.897Z,99461.88
2023-01-20T12:45:04.051Z,99459.97
2023-01-20T12:48:07.512Z,99454.34
2023-01-20T12:50:51.284Z,99452.44
2023-01-20T12:53:23.616Z,99455.78
2023-01-20T12:56:22.153Z,99465.72
2023-01-20T12:59:14.691Z,99468.78
2023-01-20T13:02:24.996Z,99464.44
2023-01-20T13:05:14.909Z,99462.66
2023-01-20T13:08:15.057Z,99469.16
2023-01-20T13:10:56.515Z,99471.56
2023-01-20T13:13:57.575Z,99483.09
2023-01-20T13:16:37.772Z,99482.97
2023-01-20T13:19:19.749Z,99480.72
2023-01-20T13:22:03.040Z,99482.00
2023-01-20T13:24:34.548Z,99482.28
2023-01-20T13:27:03.909Z,99480.22
2023-01-20T13:29:39.302Z,99486.38
2023-01-20T13:32:34.461Z,99484.63
2023-01-20T13:35:24.211Z,99479.81
2023-01-20T13:38:03.179Z,99483.34
2023-01-20T13:40:32.828Z,99481.00
2023-01-20T13:43:01.793Z,99475.53
2023-01-20T13:45:28.592Z,99475.19
2023-01-20T13:48:09.846Z,99482.87
2023-01-20T13:50:39.326Z,99484.06
2023-01-20T13:53:25.080Z,99468.34
2023-01-20T13:55:54.026Z,99477.44
2023-01-20T13:58:29.016Z,99485.13
2023-01-20T14:01:06.149Z,99496.16
2023-01-20T14:03:39.543Z,99492.81
2023-01-20T14:06:13.223Z,99503.56
2023-01-20T14:08:44.700Z,99513.00
2023-01-20T14:11:16.230Z,99510.81
2023-01-20T14:13:54.841Z,99507.97
2023-01-20T14:16:32.283Z,99505.53
2023-01-20T14:19:01.466Z,99516.62
2023-01-20T14:21:30.650Z,99524.84
2023-01-20T14:24:00.882Z,99518.13
2023-01-20T14:26:30.239Z,99518.94
2023-01-20T14:29:03.506Z,99507.88
2023-01-20T14:31:48.328Z,99513.31
2023-01-20T14:34:32.694Z,99520.37
2023-01-20T14:37:17.945Z,99521.19
2023-01-20T14:39:49.589Z,99531.62
2023-01-20T14:42:20.057Z,99529.84
2023-01-20T14:44:51.437Z,99538.50
2023-01-20T14:47:20.009Z,99538.84
2023-01-20T14:49:48.816Z,99536.13
2023-01-20T14:52:35.641Z,99543.78
2023-01-20T14:55:02.229Z,99536.13
2023-01-20T14:57:33.801Z,99549.53
2023-01-20T15:00:19.116Z,99551.59
2023-01-20T15:03:01.327Z,99546.16
2023-01-20T15:05:37.300Z,99542.16
2023-01-20T15:08:04.880Z,99547.59
2023-01-20T15:10:31.685Z,99557.66
2023-01-20T15:12:59.610Z,99555.09
2023-01-20T15:15:30.423Z,99563.25
2023-01-20T15:18:19.032Z,99562.41
2023-01-20T15:21:15.537Z,99557.97
2023-01-20T15:23:45.586Z,99567.06
2023-01-20T15:26:28.410Z,99550.28
2023-01-20T15:28:56.391Z,99552.34
2023-01-20T15:31:23.831Z,99564.19
2023-01-20T15:33:50.759Z,99565.94
2023-01-20T15:36:20.219Z,99571.06
2023-01-20T15:38:47.009Z,99574.91
2023-01-20T15:41:14.281Z,99573.97
2023-01-20T15:43:42.436Z,99569.78
2023-01-20T15:46:13.272Z,99573.00
2023-01-20T15:48:40.626Z,99561.00
2023-01-20T15:51:14.086Z,99574.91
2023-01-20T15:53:40.959Z,99581.81
2023-01-20T15:56:16.399Z,99589.16
2023-01-20T15:58:42.975Z,99594.12
2023-01-20T16:01:17.468Z,99584.03
2023-01-20T16:03:44.243Z,99583.56
2023-01-20T16:06:16.465Z,99586.91
2023-01-20T16:08:54.124Z,99578.91
2023-01-20T16:11:20.905Z,99589.00
2023-01-20T16:13:47.517Z,99588.81
2023-01-20T16:16:17.541Z,99600.66
2023-01-20T16:18:44.486Z,99589.47
2023-01-20T16:21:13.073Z,99582.56
2023-01-20T16:23:42.270Z,99584.50
2023-01-20T16:26:27.081Z,99591.88
2023-01-20T16:28:56.380Z,99588.97
2023-01-20T16:31:23.952Z,99581.41
2023-01-20T16:33:52.253Z,99581.78
2023-01-20T16:36:21.112Z,99588.31
2023-01-20T16:38:50.688Z,99583.19
2023-01-20T16:41:21.698Z,99586.06
2023-01-20T16:43:49.216Z,99582.19
2023-01-20T16:46:24.990Z,99581.25
2023-01-20T16:48:53.407Z,99596.25
2023-01-20T16:51:25.859Z,99596.25
2023-01-20T16:53:53.402Z,99596.22
2023-01-20T16:56:24.888Z,99596.50
2023-01-20T16:58:53.248Z,99595.41
2023-01-20T17:01:24.925Z,99585.19
2023-01-20T17:03:55.162Z,99578.00
2023-01-20T17:06:24.660Z,99573.34
2023-01-20T17:08:53.723Z,99579.75
2023-01-20T17:11:24.882Z,99583.88
2023-01-20T17:13:51.869Z,99585.34
2023-01-20T17:16:21.205Z,99587.09
2023-01-20T17:18:52.219Z,99594.56
2023-01-20T17:21:20.700Z,99585.66
2023-01-20T17:23:54.745Z,99585.81
2023-01-20T17:26:24.164Z,99592.69
2023-01-20T17:28:58.277Z,99593.16
2023-01-20T17:31:25.392Z,99586.66
2023-01-20T17:33:52.578Z,99590.16
2023-01-20T17:36:19.562Z,99590.44
2023-01-20T17:38:46.604Z,99597.50
2023-01-20T17:41:15.417Z,99599.06
2023-01-20T17:43:48.266Z,99592.69
2023-01-20T17:46:25.487Z,99600.38
2023-01-20T17:48:52.081Z,99606.44
2023-01-20T17:51:21.812Z,99603.88
2023-01-20T17:53:49.039Z,99603.88
2023-01-20T17:56:18.990Z,99601.16
2023-01-20T17:58:46.523Z,99598.63
2023-01-20T18:01:14.133Z,99596.87
2023-01-20T18:03:43.103Z,99603.56
2023-01-20T18:06:11.982Z,99604.84
2023-01-20T18:08:41.396Z,99600.19
2023-01-20T18:11:15.139Z,99603.88
2023-01-20T18:13:44.882Z,99603.28
2023-01-20T18:16:13.347Z,99596.06
2023-01-20T18:18:43.964Z,99586.50
2023-01-20T18:21:13.529Z,99589.37
2023-01-20T18:23:40.762Z,99597.37
2023-01-20T18:26:10.848Z,99597.22
2023-01-20T18:28:38.101Z,99592.78
2023-01-20T18:31:10.545Z,99589.87
2023-01-20T18:33:42.356Z,99584.25
2023-01-20T18:36:15.123Z,99581.56
2023-01-20T18:38:45.044Z,99585.75
2023-01-20T18:41:13.846Z,99584.50
2023-01-20T18:43:41.015Z,99571.03
2023-01-20T18:46:09.014Z,99577.75
2023-01-20T18:48:41.319Z,99578.38
2023-01-20T18:51:14.669Z,99573.44
2023-01-20T18:53:43.156Z,99576.81
2023-01-20T18:56:12.425Z,99581.63
2023-01-20T18:58:41.398Z,99572.97
2023-01-20T19:01:14.115Z,99566.56
2023-01-20T19:03:41.285Z,99567.22
2023-01-20T19:06:12.980Z,99567.22
2023-01-20T19:08:41.166Z,99567.22
2023-01-20T19:11:19.312Z,99570.56
2023-01-20T19:13:48.724Z,99570.44
2023-01-20T19:16:16.608Z,99570.59
2023-01-20T19:18:47.249Z,99569.31
2023-01-20T19:21:17.284Z,99574.94
2023-01-20T19:23:47.684Z,99573.66
2023-01-20T19:26:14.762Z,99588.22
2023-01-20T19:28:41.391Z,99592.69
2023-01-20T19:31:15.295Z,99583.72
2023-01-20T19:33:42.681Z,99589.34
2023-01-20T19:36:13.027Z,99584.72
2023-01-20T19:38:40.265Z,99593.34
2023-01-20T19:41:17.939Z,99588.38
2023-01-20T19:43:44.998Z,99583.41
2023-01-20T19:46:20.470Z,99582.47
2023-01-20T19:48:50.009Z,99581.37
2023-01-20T19:51:17.373Z,99582.94
2023-01-20T19:53:44.510Z,99574.31
2023-01-20T19:56:16.623Z,99576.41
2023-01-20T19:58:47.180Z,99583.44
2023-01-20T20:01:16.557Z,99595.28
2023-01-20T20:03:44.132Z,99605.66
2023-01-20T20:06:27.968Z,99608.59
2023-01-20T20:08:59.072Z,99615.81
2023-01-20T20:11:27.692Z,99618.69
2023-01-20T20:13:59.137Z,99622.69
2023-01-20T20:16:27.692Z,99621.25
2023-01-20T20:18:55.838Z,99620.13
2023-01-20T20:21:23.448Z,99627.97
2023-01-20T20:23:51.877Z,99626.84
2023-01-20T20:26:21.670Z,99626.19
2023-01-20T20:28:51.112Z,99622.53
2023-01-20T20:31:18.628Z,99625.09
2023-01-20T20:33:51.600Z,99630.69
2023-01-20T20:36:21.080Z,99626.34
2023-01-20T20:38:51.220Z,99622.84
2023-01-20T20:41:20.466Z,99628.44
2023-01-20T20:43:49.527Z,99635.97
2023-01-20T20:46:16.510Z,99625.56
2023-01-20T20:51:24.179Z,99640.09
2023-01-20T20:53:56.347Z,99649.25
2023-01-20T20:56:23.191Z,99646.06
2023-01-20T20:59:01.479Z,99651.16
2023-01-20T21:01:31.239Z,99654.22
2023-01-20T21:04:00.281Z,99649.87
2023-01-20T21:06:27.305Z,99656.94
2023-01-20T21:08:53.953Z,99655.69
2023-01-20T21:11:20.874Z,99651.81
2023-01-20T21:13:49.377Z,99650.72
2023-01-20T21:16:20.667Z,99651.50
2023-01-20T21:18:50.368Z,99660.47
2023-01-20T21:21:21.388Z,99662.06
2023-01-20T21:23:56.280Z,99666.22
2023-01-20T21:26:24.771Z,99659.81
2023-01-20T21:28:51.580Z,99666.37
2023-01-20T21:31:21.433Z,99670.25
2023-01-20T21:33:54.651Z,99679.03
2023-01-20T21:36:22.181Z,99674.09
2023-01-20T21:38:50.799Z,99677.31
2023-01-20T21:41:20.434Z,99688.81
2023-01-20T21:44:07.150Z,99684.47
2023-01-20T21:46:38.689Z,99689.28
2023-01-20T21:49:25.555Z,99692.69
2023-01-20T21:52:14.025Z,99697.19
2023-01-20T21:54:41.446Z,99698.66
2023-01-20T21:57:11.166Z,99701.53
2023-01-20T21:59:39.879Z,99706.28
2023-01-20T22:02:09.190Z,99713.34
2023-01-20T22:04:35.861Z,99706.75
2023-01-20T22:07:02.555Z,99713.66
2023-01-20T22:09:31.890Z,99718.94
2023-01-20T22:11:58.436Z,99712.19
2023-01-20T22:14:25.127Z,99715.38
2023-01-20T22:16:51.735Z,99709.16
2023-01-20T22:19:18.316Z,99719.87
2023-01-20T22:21:44.871Z,99714.75
2023-01-20T22:24:17.317Z,99711.06
2023-01-20T22:26:48.280Z,99710.91
2023-01-20T22:29:16.098Z,99702.25
2023-01-20T22:31:45.294Z,99706.56
2023-01-20T22:34:12.280Z,99706.06
2023-01-20T22:36:39.675Z,99708.28
2023-01-20T22:39:09.800Z,99709.38
2023-01-20T22:41:36.580Z,99718.97
2023-01-20T22:44:03.234Z,99718.31
2023-01-20T22:46:30.030Z,99721.22
2023-01-20T22:48:57.834Z,99717.91
2023-01-20T22:51:29.324Z,99720.47
2023-01-20T22:53:57.984Z,99715.03
2023-01-20T22:56:30.530Z,99718.06
2023-01-20T22:58:59.525Z,99714.34
2023-01-20T23:01:29.772Z,99714.22
2023-01-20T23:03:58.890Z,99715.03
2023-01-20T23:06:27.039Z,99719.03
2023-01-20T23:08:53.776Z,99728.47
2023-01-20T23:11:23.003Z,99733.59
2023-01-20T23:13:50.592Z,99725.59
2023-01-20T23:16:20.008Z,99724.66
2023-01-20T23:18:47.140Z,99723.03
2023-01-20T23:21:18.438Z,99732.97
2023-01-20T23:23:45.007Z,99735.84
2023-01-20T23:26:17.454Z,99741.59
2023-01-20T23:28:46.680Z,99747.25
2023-01-20T23:31:24.778Z,99744.00
2023-01-20T23:33:52.938Z,99751.06
2023-01-20T23:36:22.632Z,99749.19
2023-01-20T23:38:49.211Z,99749.34
2023-01-20T23:41:16.384Z,99752.84
2023-01-20T23:43:43.203Z,99767.41
2023-01-20T23:46:10.663Z,99762.59
2023-01-20T23:48:37.870Z,99762.31
2023-01-20T23:51:06.489Z,99756.19
2023-01-20T23:53:36.341Z,99752.38
2023-01-20T23:56:05.729Z,99754.31
2023-01-20T23:58:35.118Z,99749.50
